createdAt,value
2023-05-22T00:03:11.032Z,18.38
2023-05-22T00:08:13.783Z,18.33
2023-05-22T00:13:16.642Z,17.81
2023-05-22T00:18:21.224Z,18.07
2023-05-22T00:23:24.559Z,18.17
2023-05-22T00:28:27.373Z,17.60
2023-05-22T00:33:31.377Z,18.28
2023-05-22T00:38:36.553Z,18.16
2023-05-22T00:43:40.452Z,17.60
2023-05-22T00:48:44.464Z,18.26
2023-05-22T00:53:47.761Z,18.02
2023-05-22T00:58:50.659Z,18.34
2023-05-22T01:03:55.592Z,18.36
2023-05-22T01:08:58.490Z,18.15
2023-05-22T01:14:08.353Z,18.37
2023-05-22T01:19:30.968Z,18.34
2023-05-22T01:25:00.708Z,18.41
2023-05-22T01:30:28.910Z,18.35
2023-05-22T01:35:36.079Z,18.32
2023-05-22T01:40:39.879Z,18.27
2023-05-22T01:45:42.896Z,18.31
2023-05-22T01:50:51.445Z,18.07
2023-05-22T01:56:02.523Z,18.33
2023-05-22T02:01:06.214Z,17.39
2023-05-22T02:06:14.776Z,18.26
2023-05-22T02:11:19.121Z,17.86
2023-05-22T02:16:22.211Z,17.99
2023-05-22T02:21:26.365Z,18.16
2023-05-22T02:26:30.035Z,17.77
2023-05-22T02:31:32.777Z,17.78
2023-05-22T02:36:37.977Z,18.16
2023-05-22T02:41:40.763Z,18.06
2023-05-22T02:46:44.479Z,18.06
2023-05-22T02:51:48.597Z,18.12
2023-05-22T02:56:51.348Z,17.96
2023-05-22T03:01:54.465Z,17.75
2023-05-22T03:07:01.511Z,17.93
2023-05-22T03:12:04.864Z,17.80
2023-05-22T03:17:07.726Z,17.65
2023-05-22T03:22:11.826Z,17.71
2023-05-22T03:27:17.286Z,17.20
2023-05-22T03:32:22.476Z,17.71
2023-05-22T03:37:27.603Z,17.79
2023-05-22T03:42:32.507Z,17.73
2023-05-22T03:47:35.281Z,17.53
2023-05-22T03:52:40.152Z,17.85
2023-05-22T03:57:42.949Z,17.70
2023-05-22T04:02:46.574Z,17.71
2023-05-22T04:07:50.907Z,17.73
2023-05-22T04:12:53.603Z,16.49
2023-05-22T04:17:56.604Z,17.71
2023-05-22T04:23:01.024Z,17.66
2023-05-22T04:28:04.281Z,17.70
2023-05-22T04:33:08.393Z,17.70
2023-05-22T04:38:18.926Z,17.60
2023-05-22T04:43:23.378Z,17.68
2023-05-22T04:48:26.565Z,17.36
2023-05-22T04:53:30.682Z,17.61
2023-05-22T04:58:34.525Z,17.62
2023-05-22T05:03:37.355Z,17.69
2023-05-22T05:08:42.183Z,17.57
2023-05-22T05:13:47.244Z,17.67
2023-05-22T05:18:50.251Z,17.78
2023-05-22T05:23:58.343Z,17.81
2023-05-22T05:29:05.254Z,17.72
2023-05-22T05:34:14.485Z,17.66
2023-05-22T05:39:29.664Z,18.09
2023-05-22T05:44:33.710Z,18.00
2023-05-22T05:49:37.510Z,18.13
2023-05-22T05:54:53.438Z,18.05
2023-05-22T05:59:59.858Z,18.44
2023-05-22T06:05:19.272Z,18.40
2023-05-22T06:10:26.385Z,18.63
2023-05-22T06:15:36.717Z,18.83
2023-05-22T06:20:40.373Z,18.91
2023-05-22T06:25:45.105Z,18.81
2023-05-22T06:30:49.171Z,19.11
2023-05-22T06:35:55.404Z,19.02
2023-05-22T06:41:00.350Z,19.09
2023-05-22T06:46:03.560Z,18.91
2023-05-22T06:51:26.985Z,19.29
2023-05-22T06:56:41.331Z,19.15
2023-05-22T07:01:45.947Z,19.41
2023-05-22T07:06:52.504Z,19.45
2023-05-22T07:11:56.636Z,19.44
2023-05-22T07:16:59.719Z,19.46
2023-05-22T07:22:08.090Z,19.51
2023-05-22T07:27:15.112Z,18.79
2023-05-22T07:32:18.083Z,19.34
2023-05-22T07:37:22.201Z,19.08
2023-05-22T07:42:28.074Z,19.27
2023-05-22T07:47:32.209Z,19.18
2023-05-22T07:52:36.289Z,19.31
2023-05-22T07:57:43.587Z,19.19
2023-05-22T08:03:00.716Z,19.04
2023-05-22T08:08:03.903Z,19.17
2023-05-22T08:13:07.902Z,19.24
2023-05-22T08:18:11.729Z,19.19
2023-05-22T08:23:14.530Z,19.23
2023-05-22T08:28:18.574Z,19.19
2023-05-22T08:33:21.291Z,19.18
2023-05-22T08:38:23.958Z,19.13
2023-05-22T08:43:29.385Z,18.91
2023-05-22T08:48:33.637Z,18.98
2023-05-22T08:53:37.899Z,18.78
2023-05-22T08:58:42.731Z,19.00
2023-05-22T09:03:49.156Z,19.02
2023-05-22T09:08:53.346Z,18.98
2023-05-22T09:14:07.952Z,19.02
2023-05-22T09:19:10.798Z,19.18
2023-05-22T09:24:13.550Z,19.28
2023-05-22T09:29:17.580Z,19.38
2023-05-22T09:34:20.679Z,19.45
2023-05-22T09:39:23.969Z,19.55
2023-05-22T09:44:28.155Z,19.58
2023-05-22T09:49:30.999Z,19.60
2023-05-22T09:54:42.465Z,19.85
2023-05-22T09:59:54.106Z,19.86
2023-05-22T10:04:57.753Z,19.92
2023-05-22T10:10:04.935Z,19.51
2023-05-22T10:15:11.156Z,19.78
2023-05-22T10:20:14.476Z,19.76
2023-05-22T10:25:18.990Z,19.92
2023-05-22T10:30:45.555Z,19.88
2023-05-22T10:36:06.477Z,19.99
2023-05-22T10:41:10.897Z,19.90
2023-05-22T10:46:15.340Z,20.19
2023-05-22T10:51:21.724Z,20.53
2023-05-22T10:56:25.792Z,20.72
2023-05-22T11:01:29.998Z,20.86
2023-05-22T11:06:42.247Z,21.07
2023-05-22T11:11:45.451Z,21.09
2023-05-22T11:16:50.079Z,21.06
2023-05-22T11:21:52.802Z,21.45
2023-05-22T11:27:03.350Z,21.79
2023-05-22T11:32:09.926Z,21.98
2023-05-22T11:37:12.693Z,22.20
2023-05-22T11:42:15.433Z,22.36
2023-05-22T11:47:19.600Z,22.40
2023-05-22T11:52:22.890Z,22.42
2023-05-22T11:57:25.838Z,22.83
2023-05-22T12:02:30.290Z,23.02
2023-05-22T12:07:33.307Z,22.71
2023-05-22T12:12:37.741Z,23.10
2023-05-22T12:17:42.076Z,23.09
2023-05-22T12:22:45.109Z,23.43
2023-05-22T12:27:48.263Z,23.42
2023-05-22T12:32:52.710Z,23.45
2023-05-22T12:37:55.582Z,23.41
2023-05-22T12:42:58.234Z,23.82
2023-05-22T12:48:03.283Z,23.87
2023-05-22T12:53:06.090Z,23.93
2023-05-22T12:58:09.043Z,24.01
2023-05-22T13:03:13.531Z,24.11
2023-05-22T13:08:20.315Z,24.31
2023-05-22T13:13:23.381Z,23.99
2023-05-22T13:18:27.363Z,24.55
2023-05-22T13:23:30.049Z,24.82
2023-05-22T13:28:32.800Z,25.04
2023-05-22T13:33:36.985Z,24.87
2023-05-22T13:38:39.687Z,24.89
2023-05-22T13:43:42.518Z,25.24
2023-05-22T13:48:46.616Z,25.39
2023-05-22T13:53:49.326Z,25.80
2023-05-22T13:59:23.085Z,25.32
2023-05-22T14:04:37.654Z,24.94
2023-05-22T14:09:40.634Z,25.88
2023-05-22T14:15:11.143Z,26.34
2023-05-22T14:20:29.361Z,25.99
2023-05-22T14:25:32.153Z,26.33
2023-05-22T14:30:40.428Z,26.30
2023-05-22T14:35:48.396Z,25.22
2023-05-22T14:41:10.928Z,25.68
2023-05-22T14:46:26.318Z,25.89
2023-05-22T14:51:30.876Z,25.83
2023-05-22T14:56:42.617Z,25.09
2023-05-22T15:01:49.909Z,25.32
2023-05-22T15:06:54.005Z,25.31
2023-05-22T15:11:56.697Z,25.09
2023-05-22T15:17:01.625Z,24.95
2023-05-22T15:22:18.748Z,25.04
2023-05-22T15:27:26.177Z,24.56
2023-05-22T15:32:33.782Z,24.28
2023-05-22T15:37:38.616Z,22.91
2023-05-22T15:42:42.322Z,24.52
2023-05-22T15:47:51.687Z,24.72
2023-05-22T15:52:56.260Z,24.67
2023-05-22T15:57:59.748Z,24.63
2023-05-22T16:03:09.969Z,24.73
2023-05-22T16:08:15.341Z,24.64
2023-05-22T16:13:18.675Z,24.34
2023-05-22T16:18:25.400Z,24.00
2023-05-22T16:23:29.523Z,23.34
2023-05-22T16:28:32.262Z,22.87
2023-05-22T16:33:37.356Z,22.76
2023-05-22T16:38:44.934Z,22.23
2023-05-22T16:43:49.826Z,22.42
2023-05-22T16:48:52.592Z,21.92
2023-05-22T16:53:56.862Z,21.77
2023-05-22T16:58:59.526Z,21.81
2023-05-22T17:04:02.577Z,21.79
2023-05-22T17:09:13.384Z,21.66
2023-05-22T17:14:16.131Z,21.26
2023-05-22T17:19:21.427Z,21.24
2023-05-22T17:24:28.770Z,21.59
2023-05-22T17:29:38.149Z,21.22
2023-05-22T17:35:16.172Z,21.50
2023-05-22T17:40:44.046Z,21.78
2023-05-22T17:45:54.913Z,21.54
2023-05-22T17:50:59.734Z,21.99
2023-05-22T17:56:07.601Z,21.76
2023-05-22T18:01:10.414Z,21.68
2023-05-22T18:06:13.414Z,21.99
2023-05-22T18:11:28.614Z,21.78
2023-05-22T18:16:31.574Z,20.82
2023-05-22T18:21:34.526Z,21.31
2023-05-22T18:26:38.652Z,21.60
2023-05-22T18:31:42.252Z,21.53
2023-05-22T18:36:45.908Z,21.49
2023-05-22T18:41:51.544Z,21.30
2023-05-22T18:46:55.773Z,21.37
2023-05-22T18:51:58.821Z,21.31
2023-05-22T18:57:02.832Z,21.04
2023-05-22T19:02:05.936Z,21.21
2023-05-22T19:07:09.159Z,21.08
2023-05-22T19:12:13.786Z,21.07
2023-05-22T19:17:18.090Z,21.00
2023-05-22T19:22:20.907Z,20.84
2023-05-22T19:27:27.080Z,20.54
2023-05-22T19:32:30.183Z,20.82
2023-05-22T19:37:33.212Z,20.72
2023-05-22T19:42:39.304Z,20.64
2023-05-22T19:47:43.242Z,20.38
2023-05-22T19:52:46.259Z,20.36
2023-05-22T19:57:51.141Z,20.28
2023-05-22T20:02:54.095Z,20.19
2023-05-22T20:07:59.049Z,20.04
2023-05-22T20:13:06.039Z,20.06
2023-05-22T20:18:08.840Z,20.07
2023-05-22T20:23:11.721Z,19.98
2023-05-22T20:28:15.934Z,19.72
2023-05-22T20:33:19.407Z,19.80
2023-05-22T20:38:22.408Z,19.55
2023-05-22T20:43:30.059Z,19.51
2023-05-22T20:48:32.818Z,19.46
2023-05-22T20:53:35.484Z,19.28
2023-05-22T20:58:39.689Z,19.49
2023-05-22T21:03:42.426Z,18.95
2023-05-22T21:08:47.061Z,19.29
2023-05-22T21:13:56.436Z,19.17
2023-05-22T21:19:07.254Z,18.88
2023-05-22T21:24:10.830Z,19.19
2023-05-22T21:29:23.754Z,18.80
2023-05-22T21:34:26.483Z,19.13
2023-05-22T21:39:29.623Z,17.12
2023-05-22T21:44:33.706Z,19.00
2023-05-22T21:49:39.342Z,18.84
2023-05-22T21:54:42.380Z,18.73
2023-05-22T21:59:47.304Z,18.71
2023-05-22T22:04:50.212Z,18.63
2023-05-22T22:09:53.011Z,18.40
2023-05-22T22:14:59.536Z,18.44
2023-05-22T22:20:05.746Z,18.44
2023-05-22T22:25:09.387Z,18.13
2023-05-22T22:30:13.877Z,18.43
2023-05-22T22:35:16.673Z,18.57
2023-05-22T22:40:28.743Z,18.48
2023-05-22T22:45:32.933Z,18.48
2023-05-22T22:50:35.643Z,18.40
2023-05-22T22:55:38.467Z,18.23
2023-05-22T23:00:42.725Z,17.85
2023-05-22T23:05:45.636Z,17.98
2023-05-22T23:10:48.987Z,18.13
2023-05-22T23:15:53.136Z,18.04
2023-05-22T23:20:56.089Z,17.93
2023-05-22T23:25:59.181Z,17.91
2023-05-22T23:31:03.747Z,17.66
2023-05-22T23:36:06.724Z,17.60
2023-05-22T23:41:09.480Z,17.62
2023-05-22T23:46:14.006Z,18.10
2023-05-22T23:51:17.059Z,17.99
2023-05-22T23:56:19.772Z,17.62
